Time;durP1;ratioP1;P1;durP2;ratioP2;P2;SDS_P1;SDS_P2;PMS_P1;PMS_P2;Temp;Humidity;BMP_temperature;BMP_pressure;BME280_temperature;BME280_humidity;BME280_pressure;Samples;Min_cycle;Max_cycle;Signal;HPM_P1;HPM_P2
2021/06/29 00:01:31;;;;;;;;;0.00;0.00;;;;;26.37;44.11;100611.66;5087202;27;45499;-67
2021/06/29 00:03:57;;;;;;;;;0.00;0.00;;;;;26.37;44.44;100601.59;5074524;28;45032;-67
2021/06/29 00:06:22;;;;;;;;;0.00;0.00;;;;;26.34;44.16;100599.06;5074619;28;45674;-67
2021/06/29 00:08:48;;;;;;;;;0.00;0.00;;;;;26.36;44.24;100602.59;5074620;28;45837;-67
2021/06/29 00:11:16;;;;;;;;;0.00;0.00;;;;;26.35;44.22;100607.13;5074925;28;45681;-67
2021/06/29 00:13:45;;;;;;;;;0.00;0.00;;;;;26.31;44.40;100597.38;5074767;28;45404;-67
2021/06/29 00:16:11;;;;;;;;;0.00;0.00;;;;;26.33;44.54;100595.44;5074401;28;45502;-67
2021/06/29 00:18:36;;;;;;;;;0.00;0.00;;;;;26.34;44.48;100594.50;5074673;28;45514;-67
2021/06/29 00:21:02;;;;;;;;;0.00;0.00;;;;;26.33;44.32;100597.28;5074959;28;45444;-68
2021/06/29 00:23:27;;;;;;;;;0.00;0.00;;;;;26.33;44.31;100591.84;5074331;28;45462;-67
2021/06/29 00:25:53;;;;;;;;;0.00;0.00;;;;;26.33;44.52;100594.56;5074490;28;45453;-66
2021/06/29 00:28:18;;;;;;;;;0.00;0.00;;;;;26.32;44.38;100592.81;5057074;28;45354;-67
2021/06/29 00:30:44;;;;;;;;;0.00;0.00;;;;;26.32;44.44;100590.09;5078280;28;45603;-67
2021/06/29 00:33:09;;;;;;;;;0.00;0.00;;;;;26.32;44.37;100588.25;5078079;28;45409;-67
2021/06/29 00:35:35;;;;;;;;;0.00;0.00;;;;;26.33;44.41;100583.66;5078331;28;45732;-67
2021/06/29 00:38:00;;;;;;;;;0.00;0.00;;;;;26.34;44.36;100582.72;5078330;28;45403;-67
2021/06/29 00:40:26;;;;;;;;;0.00;0.00;;;;;26.31;44.78;100588.31;5078780;28;45880;-67
2021/06/29 00:42:51;;;;;;;;;0.00;0.00;;;;;26.33;44.48;100591.84;5076651;28;45362;-68
2021/06/29 00:45:17;;;;;;;;;0.00;0.00;;;;;26.34;44.39;100591.75;5077755;28;45448;-67
2021/06/29 00:47:42;;;;;;;;;0.00;0.00;;;;;26.34;44.40;100582.72;5077857;28;45397;-67
2021/06/29 00:50:09;;;;;;;;;0.00;0.00;;;;;26.35;44.65;100589.91;5078038;28;45529;-67
2021/06/29 00:52:35;;;;;;;;;0.00;0.00;;;;;26.36;44.62;100586.22;5059195;28;47898;-67
2021/06/29 00:55:00;;;;;;;;;0.00;0.00;;;;;26.35;44.43;100592.63;5077682;28;45559;-67
2021/06/29 00:57:26;;;;;;;;;0.00;0.00;;;;;26.35;44.40;100582.59;5059312;28;45465;-67
2021/06/29 00:59:51;;;;;;;;;0.00;0.00;;;;;26.35;44.33;100592.63;5077510;28;45413;-67
2021/06/29 01:02:17;;;;;;;;;0.00;0.00;;;;;26.34;44.04;100582.72;5077696;28;46190;-67
2021/06/29 01:04:43;;;;;;;;;0.00;0.00;;;;;26.34;44.39;100578.13;5077564;28;45773;-67
2021/06/29 01:07:11;;;;;;;;;0.00;0.00;;;;;26.33;44.26;100573.63;5077651;28;45472;-67
2021/06/29 01:09:38;;;;;;;;;0.00;0.00;;;;;26.33;44.41;100576.34;5077587;28;45467;-67
2021/06/29 01:12:03;;;;;;;;;0.00;0.00;;;;;26.34;44.37;100571.81;5077286;28;46628;-67
2021/06/29 01:14:29;;;;;;;;;0.00;0.00;;;;;26.32;44.28;100563.69;5077120;28;45563;-67
2021/06/29 01:16:54;;;;;;;;;0.00;0.00;;;;;26.32;44.20;100565.56;5077340;28;45433;-67
2021/06/29 01:19:21;;;;;;;;;0.00;0.00;;;;;26.32;44.73;100568.28;5077712;28;45450;-67
2021/06/29 01:21:49;;;;;;;;;0.00;0.00;;;;;26.33;44.54;100561.84;5077548;28;45547;-67
2021/06/29 01:24:21;;;;;;;;;0.00;0.00;;;;;26.31;44.35;100559.19;5077103;28;45552;-67
2021/06/29 01:27:04;;;;;;;;;0.00;0.00;;;;;26.31;44.42;100556.47;5077597;28;45540;-68
2021/06/29 01:29:46;;;;;;;;;0.00;0.00;;;;;26.31;44.47;100556.47;5077676;28;45755;-67
2021/06/29 01:32:18;;;;;;;;;0.00;0.00;;;;;26.31;44.48;100559.19;5077156;28;45419;-67
2021/06/29 01:34:44;;;;;;;;;0.00;0.00;;;;;26.31;44.38;100566.50;5077079;28;45374;-67
2021/06/29 01:37:11;;;;;;;;;0.00;0.00;;;;;26.28;44.28;100567.56;5077707;28;45499;-68
2021/06/29 01:39:36;;;;;;;;;0.00;0.00;;;;;26.29;44.33;100565.69;5076978;28;45669;-68
2021/06/29 01:42:03;;;;;;;;;0.00;0.00;;;;;26.29;44.34;100563.84;5076927;28;45733;-68
2021/06/29 01:44:33;;;;;;;;;0.00;0.00;;;;;26.29;44.55;100560.25;5075781;28;45524;-67
2021/06/29 01:47:00;;;;;;;;;0.00;0.00;;;;;26.28;44.42;100556.66;5058698;28;45413;-67
2021/06/29 01:49:27;;;;;;;;;0.00;0.00;;;;;26.29;44.47;100549.34;5077234;28;45511;-67
2021/06/29 01:51:53;;;;;;;;;0.00;0.00;;;;;26.28;44.41;100534.84;5058536;28;45411;-67
2021/06/29 01:54:20;;;;;;;;;0.00;0.00;;;;;26.28;44.44;100536.69;5087019;27;45423;-67
2021/06/29 01:56:47;;;;;;;;;0.00;0.00;;;;;26.27;44.43;100537.63;5097343;27;45594;-68
2021/06/29 01:59:15;;;;;;;;;0.00;0.00;;;;;26.26;44.66;100536.78;5097602;27;45855;-67
2021/06/29 02:01:42;;;;;;;;;0.00;0.00;;;;;26.28;44.57;100539.41;5096704;27;46067;-67
2021/06/29 02:04:07;;;;;;;;;0.00;0.00;;;;;26.27;44.59;100543.09;5078349;27;45438;-67
2021/06/29 02:06:32;;;;;;;;;0.00;0.00;;;;;26.27;44.66;100543.09;5078752;27;45822;-67
2021/06/29 02:08:59;;;;;;;;;0.00;0.00;;;;;26.27;44.50;100532.19;5097162;27;45451;-67
2021/06/29 02:11:24;;;;;;;;;0.00;0.00;;;;;26.27;44.81;100534.91;5097014;27;46230;-67
2021/06/29 02:13:49;;;;;;;;;0.00;0.00;;;;;26.25;44.46;100526.81;5097209;27;45420;-67
2021/06/29 02:16:15;;;;;;;;;0.00;0.00;;;;;26.27;44.73;100527.59;5097343;27;45507;-67
2021/06/29 02:18:40;;;;;;;;;0.00;0.00;;;;;26.25;44.59;100521.38;5097202;27;44907;-67
2021/06/29 02:21:08;;;;;;;;;0.00;0.00;;;;;26.26;44.43;100525.88;5097014;27;45428;-67
2021/06/29 02:23:33;;;;;;;;;0.00;0.00;;;;;26.25;44.52;100529.53;5096654;27;45585;-67
2021/06/29 02:25:59;;;;;;;;;0.00;0.00;;;;;26.25;44.58;100529.53;5096639;27;45468;-67
2021/06/29 02:28:25;;;;;;;;;0.00;0.00;;;;;26.25;44.43;100523.22;5097115;27;45784;-67
2021/06/29 02:30:50;;;;;;;;;0.00;0.00;;;;;26.26;44.63;100530.44;5096309;27;45904;-67
2021/06/29 02:33:17;;;;;;;;;0.00;0.00;;;;;26.24;44.58;100522.34;5096802;27;45895;-67
2021/06/29 02:35:42;;;;;;;;;0.00;0.00;;;;;26.22;44.66;100523.38;5096771;27;45353;-67
2021/06/29 02:38:08;;;;;;;;;0.00;0.00;;;;;26.24;44.50;100530.53;5096489;27;45479;-67
2021/06/29 02:40:34;;;;;;;;;0.00;0.00;;;;;26.25;44.59;100535.00;5096868;27;45533;-67
2021/06/29 02:42:59;;;;;;;;;0.00;0.00;;;;;26.24;44.39;100526.88;5094930;27;45510;-68
2021/06/29 02:45:26;;;;;;;;;0.00;0.00;;;;;26.24;44.73;100526.88;5096580;27;45796;-67
2021/06/29 02:47:53;;;;;;;;;0.00;0.00;;;;;26.25;44.51;100525.94;5096184;27;45524;-67
2021/06/29 02:50:19;;;;;;;;;0.00;0.00;;;;;26.24;44.65;100521.44;5096192;27;46039;-67
2021/06/29 02:52:45;;;;;;;;;0.00;0.00;;;;;26.24;44.45;100522.34;5095713;27;45454;-67
2021/06/29 02:55:13;;;;;;;;;0.00;0.00;;;;;26.24;44.60;100518.72;5096173;27;45434;-67
2021/06/29 02:57:39;;;;;;;;;0.00;0.00;;;;;26.22;44.58;100507.91;5096314;27;45665;-67
2021/06/29 03:00:09;;;;;;;;;0.00;0.00;;;;;26.21;44.47;100514.31;5096042;27;45438;-67
2021/06/29 03:02:35;;;;;;;;;0.00;0.00;;;;;26.23;44.26;100515.13;5096246;27;45492;-67
2021/06/29 03:05:02;;;;;;;;;0.00;0.00;;;;;26.23;44.49;100508.78;5095834;27;45476;-67
2021/06/29 03:07:35;;;;;;;;;0.00;0.00;;;;;26.19;44.63;100497.16;5096508;27;45385;-67
2021/06/29 03:10:02;;;;;;;;;0.00;0.00;;;;;26.22;44.57;100493.38;5095846;27;46382;-67
2021/06/29 03:12:27;;;;;;;;;0.00;0.00;;;;;26.21;44.21;100497.09;5095829;27;45347;-66
2021/06/29 03:14:56;;;;;;;;;0.00;0.00;;;;;26.22;44.50;100501.56;5096221;27;45749;-67
2021/06/29 03:17:22;;;;;;;;;0.00;0.00;;;;;26.21;44.63;100494.38;5095980;27;45365;-67
2021/06/29 03:19:47;;;;;;;;;0.00;0.00;;;;;26.21;44.42;100505.25;5095703;27;45639;-67
2021/06/29 03:22:13;;;;;;;;;0.00;0.00;;;;;26.20;44.57;100506.22;5096065;27;45852;-67
2021/06/29 03:24:38;;;;;;;;;0.00;0.00;;;;;26.20;44.57;100492.59;5096330;27;45479;-67
2021/06/29 03:27:04;;;;;;;;;0.00;0.00;;;;;26.20;44.59;100498.03;5096275;27;45369;-67
2021/06/29 03:29:29;;;;;;;;;0.00;0.00;;;;;26.19;44.73;100490.84;5096122;27;45595;-67
2021/06/29 03:31:55;;;;;;;;;0.00;0.00;;;;;26.19;44.69;100490.84;5095605;27;45693;-67
2021/06/29 03:34:20;;;;;;;;;0.00;0.00;;;;;26.18;44.79;100487.25;5077435;27;44779;-67
2021/06/29 03:36:46;;;;;;;;;0.00;0.00;;;;;26.18;44.71;100483.63;5095773;27;45622;-67
2021/06/29 03:39:11;;;;;;;;;0.00;0.00;;;;;26.18;44.57;100483.63;5095376;27;45735;-67
2021/06/29 03:41:37;;;;;;;;;0.00;0.00;;;;;26.19;44.76;100485.38;5095348;27;45400;-67
2021/06/29 03:44:10;;;;;;;;;0.00;0.00;;;;;26.17;44.59;100482.75;5094033;27;45488;-67
2021/06/29 03:46:35;;;;;;;;;0.00;0.00;;;;;26.18;44.72;100483.63;5095710;27;45509;-67
2021/06/29 03:49:00;;;;;;;;;0.00;0.00;;;;;26.17;44.61;100479.16;5095289;27;45427;-67
2021/06/29 03:51:26;;;;;;;;;0.00;0.00;;;;;26.18;44.36;100486.34;5095576;27;45355;-67
2021/06/29 03:53:52;;;;;;;;;0.00;0.00;;;;;26.14;44.46;100478.34;5095415;27;45451;-67
2021/06/29 03:56:24;;;;;;;;;0.00;0.00;;;;;26.18;44.76;100494.50;5095570;27;45468;-67
2021/06/29 03:58:57;;;;;;;;;0.00;0.00;;;;;26.18;44.60;100489.97;5095380;27;45718;-67
2021/06/29 04:01:23;;;;;;;;;0.00;0.00;;;;;26.18;44.70;100486.34;5078924;27;45556;-67
2021/06/29 04:03:51;;;;;;;;;0.00;0.00;;;;;26.17;44.64;100490.91;5073506;28;45498;-67
2021/06/29 04:06:16;;;;;;;;;0.00;0.00;;;;;26.14;44.56;100483.78;5075088;28;45399;-68
2021/06/29 04:08:42;;;;;;;;;0.00;0.00;;;;;26.17;44.78;100481.88;5056051;28;46274;-67
2021/06/29 04:11:07;;;;;;;;;0.00;0.00;;;;;26.17;44.62;100487.31;5074765;28;45494;-67
2021/06/29 04:13:32;;;;;;;;;0.00;0.00;;;;;26.18;44.41;100491.78;5074746;28;45334;-67
2021/06/29 04:15:58;;;;;;;;;0.00;0.00;;;;;26.15;44.67;100487.41;5074839;28;45758;-68
2021/06/29 04:18:23;;;;;;;;;0.00;0.00;;;;;26.17;44.57;100493.66;5074372;28;45353;-67
2021/06/29 04:20:49;;;;;;;;;0.00;0.00;;;;;26.14;44.67;100488.38;5074454;28;45452;-68
2021/06/29 04:23:14;;;;;;;;;0.00;0.00;;;;;26.12;44.53;100491.19;5074526;28;45866;-67
2021/06/29 04:25:40;;;;;;;;;0.00;0.00;;;;;26.14;44.46;100502.00;5074674;28;45503;-69
2021/06/29 04:28:05;;;;;;;;;0.00;0.00;;;;;26.13;44.63;100482.03;5073857;28;45463;-66
2021/06/29 04:30:32;;;;;;;;;0.00;0.00;;;;;26.12;44.31;100487.59;5074991;28;45839;-67
2021/06/29 04:32:58;;;;;;;;;0.00;0.00;;;;;26.12;44.65;100484.84;5074766;28;45744;-67
2021/06/29 04:35:23;;;;;;;;;0.00;0.00;;;;;26.11;44.51;100489.41;5075181;28;45443;-67
2021/06/29 04:37:49;;;;;;;;;0.00;0.00;;;;;26.11;44.52;100486.69;5074681;28;46335;-66
2021/06/29 04:40:15;;;;;;;;;0.00;0.00;;;;;26.09;44.51;100485.88;5056013;28;44945;-67
2021/06/29 04:42:42;;;;;;;;;0.00;0.00;;;;;26.09;44.37;100485.88;5074850;28;45401;-68
2021/06/29 04:45:08;;;;;;;;;0.00;0.00;;;;;26.09;44.38;100491.34;5053370;28;45495;-67
2021/06/29 04:47:40;;;;;;;;;0.00;0.00;;;;;26.07;44.31;100482.34;5054215;28;45434;-67
2021/06/29 04:50:05;;;;;;;;;0.00;0.00;;;;;26.07;44.39;100476.03;5054316;28;45444;-67
2021/06/29 04:52:33;;;;;;;;;0.00;0.00;;;;;26.07;44.53;100476.91;5054143;28;45349;-67
2021/06/29 04:55:00;;;;;;;;;0.00;0.00;;;;;26.08;44.50;100483.25;5054042;28;45404;-67
2021/06/29 04:57:25;;;;;;;;;0.00;0.00;;;;;26.04;44.49;100479.81;5053490;28;45572;-67
2021/06/29 04:59:51;;;;;;;;;0.00;0.00;;;;;26.05;44.57;100473.38;5053726;28;45455;-67
2021/06/29 05:02:17;;;;;;;;;0.00;0.00;;;;;26.05;44.46;100470.66;5053768;28;45500;-68
2021/06/29 05:04:42;;;;;;;;;0.00;0.00;;;;;26.04;44.72;100474.38;5053937;28;45454;-67
2021/06/29 05:07:09;;;;;;;;;0.00;0.00;;;;;26.06;44.60;100474.28;5054012;28;45460;-67
2021/06/29 05:09:34;;;;;;;;;0.00;0.00;;;;;26.04;44.65;100477.09;5053716;28;45384;-67
2021/06/29 05:11:59;;;;;;;;;0.00;0.00;;;;;26.04;44.68;100482.53;5053621;28;45480;-68
2021/06/29 05:14:25;;;;;;;;;0.00;0.00;;;;;26.06;44.55;100491.50;5055684;28;45775;-67
2021/06/29 05:16:50;;;;;;;;;0.00;0.00;;;;;26.06;44.69;100490.66;5057529;28;45427;-67
2021/06/29 05:19:17;;;;;;;;;0.00;0.00;;;;;26.06;44.53;100491.50;5057339;28;45469;-67
2021/06/29 05:21:42;;;;;;;;;0.00;0.00;;;;;26.07;44.58;100497.84;5055834;28;45322;-67
2021/06/29 05:24:08;;;;;;;;;0.00;0.00;;;;;26.08;44.55;100495.03;5057457;28;45408;-67
2021/06/29 05:26:33;;;;;;;;;0.00;0.00;;;;;26.07;44.36;100503.28;5056987;28;45479;-67
2021/06/29 05:28:59;;;;;;;;;0.00;0.00;;;;;26.06;44.47;100502.41;5057174;28;45508;-67
2021/06/29 05:31:25;;;;;;;;;0.00;0.00;;;;;26.09;44.36;100504.09;5057457;28;45427;-67
2021/06/29 05:33:51;;;;;;;;;0.00;0.00;;;;;26.08;44.32;100505.94;5057720;28;45883;-67
2021/06/29 05:36:16;;;;;;;;;0.00;0.00;;;;;26.09;44.19;100507.69;5055286;28;47211;-67
2021/06/29 05:38:41;;;;;;;;;0.00;0.00;;;;;26.09;44.48;100513.13;5055507;28;45413;-67
2021/06/29 05:41:07;;;;;;;;;0.00;0.00;;;;;26.09;44.19;100515.84;5057037;28;45425;-68
2021/06/29 05:43:32;;;;;;;;;0.00;0.00;;;;;26.10;44.48;100525.81;5061879;28;45458;-68
2021/06/29 05:45:58;;;;;;;;;0.00;0.00;;;;;26.11;44.58;100526.69;5077078;28;45858;-68
2021/06/29 05:48:23;;;;;;;;;0.00;0.00;;;;;26.10;44.73;100520.38;5077174;28;45516;-68
2021/06/29 05:50:49;;;;;;;;;0.00;0.00;;;;;26.09;44.16;100521.31;5078373;28;45627;-68
2021/06/29 05:53:15;;;;;;;;;0.00;0.00;;;;;26.10;44.36;100528.53;5077574;28;45452;-68
2021/06/29 05:55:41;;;;;;;;;0.00;0.00;;;;;26.13;44.13;100535.66;5080478;27;45416;-68
2021/06/29 05:58:06;;;;;;;;;0.00;0.00;;;;;26.04;43.84;100534.31;5097166;27;45440;-68
2021/06/29 06:00:31;;;;;;;;;1.00;1.00;;;;;25.98;43.45;100540.09;5097472;27;45420;-69
2021/06/29 06:02:57;;;;;;;;;0.00;0.00;;;;;25.88;43.42;100536.94;5097437;27;45468;-69
2021/06/29 06:05:24;;;;;;;;;1.25;1.25;;;;;25.78;43.22;100541.13;5097087;27;46048;-69
2021/06/29 06:07:52;;;;;;;;;0.50;0.50;;;;;25.64;43.09;100550.00;5096969;27;45582;-69
2021/06/29 06:10:18;;;;;;;;;0.50;0.50;;;;;25.54;43.49;100548.72;5097251;27;45824;-69
2021/06/29 06:12:43;;;;;;;;;1.67;0.33;;;;;25.44;43.37;100552.88;5096994;27;45448;-69
2021/06/29 06:15:09;;;;;;;;;0.00;0.00;;;;;25.32;43.13;100544.34;5096782;27;46280;-69
2021/06/29 06:17:37;;;;;;;;;3.00;2.00;;;;;25.28;43.10;100556.38;5096627;27;45396;-69
2021/06/29 06:20:08;;;;;;;;;0.67;0.67;;;;;25.20;43.49;100557.69;5078344;27;45772;-69
2021/06/29 06:22:33;;;;;;;;;0.33;0.33;;;;;25.11;43.70;100561.75;5078063;27;45441;-69
2021/06/29 06:24:59;;;;;;;;;0.25;0.25;;;;;25.04;43.73;100554.84;5096447;27;45630;-69
2021/06/29 06:27:25;;;;;;;;;1.00;1.00;;;;;25.03;43.63;100563.97;5095142;27;45432;-69
2021/06/29 06:29:50;;;;;;;;;4.00;3.00;;;;;24.95;44.22;100567.94;5078916;27;45444;-72
2021/06/29 06:32:16;;;;;;;;;2.00;2.00;;;;;24.61;44.66;100563.22;5079786;27;45941;-72
2021/06/29 06:34:41;;;;;;;;;2.67;2.67;;;;;24.16;45.14;100567.97;5080068;27;45442;-72
2021/06/29 06:37:07;;;;;;;;;1.00;1.00;;;;;23.69;45.52;100567.31;5080578;27;45428;-72
2021/06/29 06:39:32;;;;;;;;;1.00;1.00;;;;;23.39;46.45;100566.78;5079402;27;45391;-72
2021/06/29 06:41:59;;;;;;;;;2.67;1.67;;;;;23.11;46.95;100570.66;5098416;27;45480;-76
2021/06/29 06:44:24;;;;;;;;;1.33;1.33;;;;;22.64;47.73;100557.09;5096359;27;45521;-74
2021/06/29 06:46:50;;;;;;;;;1.00;1.00;;;;;22.32;48.96;100553.81;5098116;27;45707;-75
2021/06/29 06:49:16;;;;;;;;;1.00;1.00;;;;;22.10;49.40;100560.00;5097309;27;45393;-74
2021/06/29 06:51:41;;;;;;;;;0.00;0.00;;;;;21.89;50.72;100561.63;5097039;27;45479;-75
2021/06/29 06:54:07;;;;;;;;;1.00;1.00;;;;;21.64;51.04;100567.03;5078060;27;46819;-75
2021/06/29 06:56:32;;;;;;;;;2.50;2.50;;;;;21.57;51.09;100571.78;5096542;27;45483;-75
2021/06/29 06:58:57;;;;;;;;;0.67;0.67;;;;;21.43;51.54;100567.75;5078039;27;45339;-75
2021/06/29 07:01:23;;;;;;;;;3.00;3.00;;;;;21.32;52.04;100571.69;5084863;27;45477;-75
2021/06/29 07:03:48;;;;;;;;;1.33;1.33;;;;;21.24;52.16;100572.88;5078533;27;46570;-75
2021/06/29 07:06:15;;;;;;;;;2.67;1.33;;;;;21.16;52.41;100565.88;5078013;27;45741;-76
2021/06/29 07:08:41;;;;;;;;;1.00;1.00;;;;;21.11;52.75;100562.47;5077610;27;45353;-75
2021/06/29 07:11:07;;;;;;;;;2.00;2.00;;;;;21.08;53.24;100565.25;5075193;28;45449;-76
2021/06/29 07:13:34;;;;;;;;;1.00;1.00;;;;;21.10;53.18;100571.50;5088907;27;45369;-77
2021/06/29 07:15:59;;;;;;;;;2.00;2.00;;;;;21.12;53.27;100579.56;5096229;27;45551;-76
2021/06/29 07:18:25;;;;;;;;;2.00;2.00;;;;;21.07;53.50;100571.63;5076752;28;45525;-75
2021/06/29 07:20:50;;;;;;;;;2.67;2.67;;;;;20.96;53.44;100563.81;5076846;28;44963;-76
2021/06/29 07:23:17;;;;;;;;;2.00;2.00;;;;;20.96;54.31;100576.47;5085448;27;46828;-75
2021/06/29 07:25:44;;;;;;;;;1.00;1.00;;;;;20.92;54.11;100578.38;5074736;27;45524;-74
2021/06/29 07:28:10;;;;;;;;;2.00;2.00;;;;;20.95;54.45;100582.81;5058015;28;45385;-75
2021/06/29 07:30:37;;;;;;;;;1.67;1.67;;;;;20.85;54.52;100570.53;5061717;27;45473;-74
2021/06/29 07:33:03;;;;;;;;;0.00;0.00;;;;;20.85;55.08;100574.09;5087940;27;45463;-75
2021/06/29 07:35:30;;;;;;;;;1.50;1.50;;;;;20.89;54.97;100583.88;5078145;27;46169;-75
2021/06/29 07:37:56;;;;;;;;;1.00;1.00;;;;;20.86;54.87;100583.09;5095368;27;45582;-75
2021/06/29 07:40:25;;;;;;;;;3.00;3.00;;;;;20.87;55.17;100584.88;5080088;27;45501;-75
2021/06/29 07:42:51;;;;;;;;;1.00;1.00;;;;;20.83;55.62;100588.63;5057492;28;47185;-75
2021/06/29 07:45:16;;;;;;;;;1.67;1.67;;;;;20.83;56.05;100586.78;5086127;27;45504;-76
2021/06/29 07:47:42;;;;;;;;;1.00;1.00;;;;;20.85;56.62;100584.91;5089299;27;45534;-77
2021/06/29 07:50:19;;;;;;;;;1.00;1.00;;;;;20.88;56.15;100579.41;5080813;27;45332;-76
2021/06/29 07:52:46;;;;;;;;;1.00;1.00;;;;;20.94;55.54;100571.09;5075893;28;47178;-76
2021/06/29 07:55:11;;;;;;;;;4.00;2.00;;;;;20.98;55.92;100582.72;5077294;28;45504;-76
2021/06/29 07:58:03;;;;;;;;;3.00;3.00;;;;;20.92;55.82;100577.50;5080591;27;45468;-77
2021/06/29 08:00:31;;;;;;;;;3.67;3.67;;;;;20.88;57.29;100576.69;5084334;27;45279;-76
2021/06/29 08:02:58;;;;;;;;;2.00;2.00;;;;;20.77;56.66;100570.75;5078750;27;47608;-74
2021/06/29 08:05:25;;;;;;;;;2.00;2.00;;;;;20.82;56.29;100579.59;5095412;27;45521;-74
2021/06/29 08:07:51;;;;;;;;;2.00;2.00;;;;;20.82;57.23;100576.88;5090317;27;45513;-75
2021/06/29 08:10:17;;;;;;;;;2.00;2.00;;;;;20.97;57.30;100584.53;5087093;27;45730;-75
2021/06/29 08:12:51;;;;;;;;;2.00;2.00;;;;;21.08;56.45;100586.88;5083953;27;46093;-75
2021/06/29 08:15:17;;;;;;;;;1.67;1.67;;;;;21.22;56.64;100578.34;5065901;27;45347;-77
2021/06/29 08:17:47;;;;;;;;;3.00;3.00;;;;;21.37;56.55;100585.97;5091583;27;45428;-75
2021/06/29 08:20:15;;;;;;;;;3.00;3.00;;;;;21.45;55.58;100582.13;5084276;27;45561;-76
2021/06/29 08:22:41;;;;;;;;;3.00;3.00;;;;;21.57;55.90;100587.13;5085631;27;46757;-74
2021/06/29 08:25:08;;;;;;;;;3.00;3.00;;;;;21.63;55.46;100581.50;5084840;27;44886;-73
2021/06/29 08:27:36;;;;;;;;;2.00;2.00;;;;;21.74;55.63;100589.28;5080363;27;45446;-74
2021/06/29 08:30:04;;;;;;;;;3.00;2.67;;;;;21.86;54.92;100593.38;5103013;27;45473;-74
2021/06/29 08:32:31;;;;;;;;;2.00;2.00;;;;;21.83;54.80;100569.09;5085281;27;47330;-75
2021/06/29 08:34:57;;;;;;;;;3.00;3.00;;;;;22.03;54.66;100585.53;5088138;27;45339;-73
2021/06/29 08:37:23;;;;;;;;;3.67;2.00;;;;;22.14;55.33;100588.75;5082705;27;45406;-75
2021/06/29 08:39:49;;;;;;;;;2.00;2.00;;;;;22.16;54.46;100575.16;5094368;27;44965;-75
2021/06/29 08:42:21;;;;;;;;;2.33;2.33;;;;;22.25;53.59;100588.38;5080261;27;46693;-75
2021/06/29 08:44:47;;;;;;;;;1.00;1.00;;;;;22.26;52.93;100591.94;5092405;27;45366;-75
2021/06/29 08:47:13;;;;;;;;;2.00;2.00;;;;;22.25;52.97;100591.06;5087049;27;45506;-75
2021/06/29 08:49:39;;;;;;;;;1.75;1.00;;;;;22.30;53.00;100586.38;5091711;27;45555;-75
2021/06/29 08:52:08;;;;;;;;;0.75;0.75;;;;;22.37;52.85;100587.91;5079294;27;46775;-74
2021/06/29 08:54:36;;;;;;;;;1.33;1.33;;;;;22.45;53.01;100590.34;5077179;27;45475;-75
2021/06/29 08:57:02;;;;;;;;;2.00;2.00;;;;;22.54;52.64;100581.88;5092214;27;45480;-75
2021/06/29 08:59:29;;;;;;;;;2.00;2.00;;;;;22.67;52.33;100581.41;5074816;27;45436;-75
2021/06/29 09:01:55;;;;;;;;;1.50;1.50;;;;;22.75;52.64;100573.84;5062893;27;45624;-75
2021/06/29 09:05:00;;;;;;;;;3.00;3.00;;;;;22.85;51.90;100580.69;5089916;27;45497;-75
2021/06/29 09:07:27;;;;;;;;;1.00;1.00;;;;;22.95;50.72;100586.63;5080854;27;45452;-75
2021/06/29 09:09:58;;;;;;;;;2.00;2.00;;;;;22.97;50.98;100585.59;5065293;27;45544;-76
2021/06/29 09:12:42;;;;;;;;;2.25;1.25;;;;;22.95;51.56;100592.94;5093032;27;46436;-76
2021/06/29 09:15:22;;;;;;;;;1.00;1.00;;;;;23.03;49.84;100587.22;5082831;27;45119;-76
2021/06/29 09:17:48;;;;;;;;;2.00;1.00;;;;;23.07;50.32;100582.56;5077112;27;45534;-74
2021/06/29 09:20:14;;;;;;;;;1.25;1.25;;;;;23.12;50.25;100580.53;5094993;27;45444;-75
2021/06/29 09:22:39;;;;;;;;;0.75;0.75;;;;;23.24;50.17;100592.72;5082026;27;45206;-76
2021/06/29 09:25:26;;;;;;;;;2.25;1.00;;;;;23.27;49.49;100588.06;5081414;27;45429;-75
2021/06/29 09:27:53;;;;;;;;;0.00;0.00;;;;;23.27;49.85;100582.63;5078671;27;44892;-75
2021/06/29 09:30:41;;;;;;;;;1.00;1.00;;;;;23.32;50.02;100575.19;5079932;27;45378;-75
2021/06/29 09:33:08;;;;;;;;;1.00;1.00;;;;;23.41;49.67;100583.88;5097053;27;45486;-75
2021/06/29 09:35:35;;;;;;;;;1.00;1.00;;;;;23.49;48.67;100581.72;5074455;27;45807;-75
2021/06/29 09:38:01;;;;;;;;;1.00;1.00;;;;;23.51;44.32;100582.53;5076612;27;45539;-74
2021/06/29 09:40:29;;;;;;;;;0.25;0.25;;;;;23.25;46.15;100573.69;5093456;27;45392;-75
2021/06/29 09:43:09;;;;;;;;;1.75;1.75;;;;;23.11;47.43;100579.66;5078762;27;46951;-74
2021/06/29 09:45:44;;;;;;;;;0.00;0.00;;;;;23.20;48.11;100581.13;5102767;27;45705;-74
2021/06/29 09:48:10;;;;;;;;;0.67;0.67;;;;;23.23;47.35;100575.56;5057849;27;45418;-76
2021/06/29 09:50:39;;;;;;;;;0.75;0.00;;;;;23.36;47.72;100579.53;5104172;27;45305;-75
2021/06/29 09:53:27;;;;;;;;;0.00;0.00;;;;;23.42;47.56;100574.81;5095555;27;45877;-75
2021/06/29 09:56:17;;;;;;;;;0.50;0.50;;;;;23.41;47.22;100576.66;5090759;27;45464;-75
2021/06/29 09:58:49;;;;;;;;;2.00;2.00;;;;;23.43;46.71;100576.56;5077676;27;45428;-77
2021/06/29 10:01:17;;;;;;;;;1.00;1.00;;;;;23.53;46.72;100584.28;5065776;27;45354;-76
2021/06/29 10:03:43;;;;;;;;;1.33;1.33;;;;;23.50;45.22;100584.38;5102085;27;46025;-75
2021/06/29 10:06:18;;;;;;;;;0.00;0.00;;;;;23.45;45.43;100571.94;5078528;27;45343;-75
2021/06/29 10:08:45;;;;;;;;;0.25;0.25;;;;;23.51;46.45;100572.59;5086743;27;45388;-75
2021/06/29 10:11:14;;;;;;;;;0.00;0.00;;;;;23.72;46.70;100586.19;5079195;27;45648;-75
2021/06/29 10:13:44;;;;;;;;;0.00;0.00;;;;;23.85;46.10;100579.28;5084479;27;45387;-75
2021/06/29 10:16:12;;;;;;;;;0.25;0.25;;;;;23.95;46.27;100580.66;5078083;27;45646;-75
2021/06/29 10:18:43;;;;;;;;;5.00;5.00;;;;;23.90;42.16;100574.56;5085576;27;45800;-74
2021/06/29 10:21:22;;;;;;;;;3.00;3.00;;;;;23.56;43.27;100577.81;5072586;27;45420;-75
2021/06/29 10:23:55;;;;;;;;;2.33;2.33;;;;;23.02;42.73;100581.88;5092805;27;46194;-74
2021/06/29 10:26:22;;;;;;;;;2.33;2.00;;;;;22.65;45.81;100573.31;5101817;27;45517;-74
2021/06/29 10:28:51;;;;;;;;;1.50;1.50;;;;;22.50;46.91;100576.59;5078558;27;45357;-74
2021/06/29 10:31:25;;;;;;;;;2.00;2.00;;;;;22.30;46.91;100582.78;5094834;27;45414;-74
2021/06/29 10:33:54;;;;;;;;;2.00;2.00;;;;;22.34;48.22;100581.75;5105054;27;46047;-74
2021/06/29 10:36:21;;;;;;;;;0.00;0.00;;;;;22.47;48.08;100574.03;5097896;27;45950;-74
2021/06/29 10:38:48;;;;;;;;;2.00;2.00;;;;;22.59;45.13;100572.69;5078501;27;45582;-74
2021/06/29 10:41:17;;;;;;;;;0.00;0.00;;;;;22.43;45.96;100577.78;5078763;27;45470;-73
2021/06/29 10:43:46;;;;;;;;;0.00;0.00;;;;;22.30;47.06;100571.94;5089368;27;45439;-73
2021/06/29 10:46:35;;;;;;;;;1.00;1.00;;;;;22.33;46.88;100567.28;5091917;27;45567;-74
2021/06/29 10:49:28;;;;;;;;;0.75;0.75;;;;;22.43;47.11;100572.38;5082549;27;45699;-75
2021/06/29 10:51:58;;;;;;;;;2.25;2.00;;;;;22.51;46.64;100565.72;5123262;27;45454;-75
2021/06/29 10:54:55;;;;;;;;;1.00;1.00;;;;;22.39;46.80;100571.59;5103915;27;46956;-74
2021/06/29 10:57:26;;;;;;;;;2.00;0.00;;;;;22.47;46.08;100564.06;5109424;27;45741;-74
2021/06/29 10:59:55;;;;;;;;;1.50;1.50;;;;;22.59;46.96;100569.97;5101406;27;44848;-72
2021/06/29 11:02:31;;;;;;;;;1.00;1.00;;;;;22.88;45.51;100564.25;5081502;27;45166;-73
2021/06/29 11:04:58;;;;;;;;;2.00;0.50;;;;;23.02;46.47;100571.00;5095938;27;47023;-72
2021/06/29 11:07:27;;;;;;;;;2.00;2.00;;;;;23.21;44.54;100566.63;5097011;27;45471;-71
2021/06/29 11:09:56;;;;;;;;;3.25;3.25;;;;;23.22;44.77;100567.50;5098332;27;45495;-72
2021/06/29 11:12:27;;;;;;;;;0.75;0.75;;;;;23.20;44.77;100572.97;5077281;27;45520;-71
2021/06/29 11:14:56;;;;;;;;;1.00;1.00;;;;;23.17;43.63;100567.69;5097486;27;45425;-71
2021/06/29 11:17:52;;;;;;;;;0.00;0.00;;;;;22.75;43.29;100572.00;5109579;27;45454;-84
2021/06/29 11:20:38;;;;;;;;;1.33;1.33;;;;;22.39;45.11;100568.91;5087744;28;45245;-83
2021/06/29 11:23:06;;;;;;;;;2.33;2.00;;;;;22.37;45.86;100560.81;5071312;28;45813;-84
2021/06/29 11:25:53;;;;;;;;;2.00;2.00;;;;;22.68;46.20;100569.59;5071904;28;47883;-83
2021/06/29 11:28:37;;;;;;;;;2.00;2.00;;;;;22.82;45.29;100567.22;5087880;27;45343;-83